sensor_id;sensor_type;location;lat;lon;timestamp;pressure;altitude;pressure_sealevel;temperature;humidity
29379;BME280;16362;47.202;15.258;2023-03-14T00:00:15;94940.25;;;2.04;100.00
29379;BME280;16362;47.202;15.258;2023-03-14T00:02:42;94933.59;;;1.91;100.00
29379;BME280;16362;47.202;15.258;2023-03-14T00:05:08;94936.38;;;1.90;100.00
29379;BME280;16362;47.202;15.258;2023-03-14T00:07:36;94934.03;;;1.87;100.00
29379;BME280;16362;47.202;15.258;2023-03-14T00:10:03;94937.19;;;1.64;100.00
29379;BME280;16362;47.202;15.258;2023-03-14T00:12:31;94932.72;;;1.64;100.00
29379;BME280;16362;47.202;15.258;2023-03-14T00:14:58;94928.97;;;1.67;100.00
29379;BME280;16362;47.202;15.258;2023-03-14T00:17:26;94935.25;;;1.74;100.00
29379;BME280;16362;47.202;15.258;2023-03-14T00:19:53;94928.44;;;1.81;100.00
29379;BME280;16362;47.202;15.258;2023-03-14T00:22:20;94922.97;;;1.75;100.00
29379;BME280;16362;47.202;15.258;2023-03-14T00:26:17;94925.97;;;1.62;100.00
29379;BME280;16362;47.202;15.258;2023-03-14T00:28:44;94929.72;;;1.59;100.00
29379;BME280;16362;47.202;15.258;2023-03-14T00:31:12;94934.53;;;1.64;100.00
29379;BME280;16362;47.202;15.258;2023-03-14T00:33:39;94929.94;;;1.66;100.00
29379;BME280;16362;47.202;15.258;2023-03-14T00:36:07;94938.88;;;1.73;100.00
29379;BME280;16362;47.202;15.258;2023-03-14T00:38:35;94928.22;;;1.75;100.00
29379;BME280;16362;47.202;15.258;2023-03-14T00:41:03;94924.59;;;1.76;100.00
29379;BME280;16362;47.202;15.258;2023-03-14T00:43:43;94923.38;;;1.88;100.00
29379;BME280;16362;47.202;15.258;2023-03-14T00:46:10;94918.25;;;1.87;100.00
29379;BME280;16362;47.202;15.258;2023-03-14T00:48:37;94917.59;;;1.84;100.00
29379;BME280;16362;47.202;15.258;2023-03-14T00:52:58;94916.00;;;1.92;100.00
29379;BME280;16362;47.202;15.258;2023-03-14T00:55:25;94920.28;;;1.93;100.00
29379;BME280;16362;47.202;15.258;2023-03-14T01:01:17;94891.34;;;1.93;100.00
29379;BME280;16362;47.202;15.258;2023-03-14T01:03:45;94900.63;;;2.05;100.00
29379;BME280;16362;47.202;15.258;2023-03-14T01:06:15;94881.34;;;1.96;100.00
29379;BME280;16362;47.202;15.258;2023-03-14T01:08:43;94877.22;;;1.94;100.00
29379;BME280;16362;47.202;15.258;2023-03-14T01:12:18;94874.25;;;1.97;100.00
29379;BME280;16362;47.202;15.258;2023-03-14T01:14:45;94857.13;;;1.93;100.00
29379;BME280;16362;47.202;15.258;2023-03-14T01:17:11;94846.09;;;1.89;100.00
29379;BME280;16362;47.202;15.258;2023-03-14T01:19:38;94851.31;;;1.81;100.00
29379;BME280;16362;47.202;15.258;2023-03-14T01:22:05;94857.69;;;1.78;100.00
29379;BME280;16362;47.202;15.258;2023-03-14T01:24:31;94852.75;;;1.75;100.00
29379;BME280;16362;47.202;15.258;2023-03-14T01:26:58;94860.66;;;1.75;100.00
29379;BME280;16362;47.202;15.258;2023-03-14T01:29:24;94831.31;;;1.88;100.00
29379;BME280;16362;47.202;15.258;2023-03-14T01:31:51;94814.16;;;1.84;100.00
29379;BME280;16362;47.202;15.258;2023-03-14T01:34:17;94806.09;;;1.77;100.00
29379;BME280;16362;47.202;15.258;2023-03-14T01:36:44;94815.06;;;1.66;100.00
29379;BME280;16362;47.202;15.258;2023-03-14T01:39:10;94810.63;;;1.67;100.00
29379;BME280;16362;47.202;15.258;2023-03-14T01:41:37;94817.38;;;1.70;100.00
29379;BME280;16362;47.202;15.258;2023-03-14T01:44:03;94800.91;;;1.67;100.00
29379;BME280;16362;47.202;15.258;2023-03-14T01:46:44;94793.72;;;1.70;100.00
29379;BME280;16362;47.202;15.258;2023-03-14T01:49:13;94794.72;;;1.77;100.00
29379;BME280;16362;47.202;15.258;2023-03-14T01:54:19;94795.03;;;1.74;100.00
29379;BME280;16362;47.202;15.258;2023-03-14T01:56:47;94788.94;;;1.73;100.00
29379;BME280;16362;47.202;15.258;2023-03-14T01:59:15;94795.31;;;1.97;100.00
29379;BME280;16362;47.202;15.258;2023-03-14T02:01:43;94797.28;;;1.95;100.00
29379;BME280;16362;47.202;15.258;2023-03-14T02:04:10;94795.66;;;1.94;100.00
29379;BME280;16362;47.202;15.258;2023-03-14T02:09:18;94798.91;;;1.88;100.00
29379;BME280;16362;47.202;15.258;2023-03-14T02:11:45;94781.97;;;1.90;100.00
29379;BME280;16362;47.202;15.258;2023-03-14T02:14:34;94788.38;;;1.88;100.00
29379;BME280;16362;47.202;15.258;2023-03-14T02:17:00;94787.41;;;1.89;100.00
29379;BME280;16362;47.202;15.258;2023-03-14T02:22:22;94787.41;;;1.89;100.00
29379;BME280;16362;47.202;15.258;2023-03-14T02:24:53;94782.94;;;1.89;100.00
29379;BME280;16362;47.202;15.258;2023-03-14T02:27:23;94778.00;;;1.86;100.00
29379;BME280;16362;47.202;15.258;2023-03-14T02:30:38;94785.19;;;1.76;100.00
29379;BME280;16362;47.202;15.258;2023-03-14T02:33:15;94772.59;;;1.88;100.00
29379;BME280;16362;47.202;15.258;2023-03-14T02:35:50;94787.75;;;1.94;100.00
29379;BME280;16362;47.202;15.258;2023-03-14T02:38:20;94795.88;;;1.74;100.00
29379;BME280;16362;47.202;15.258;2023-03-14T02:40:47;94799.41;;;1.65;100.00
29379;BME280;16362;47.202;15.258;2023-03-14T02:43:14;94790.50;;;1.58;100.00
29379;BME280;16362;47.202;15.258;2023-03-14T02:48:09;94760.47;;;1.34;100.00
29379;BME280;16362;47.202;15.258;2023-03-14T02:50:37;94765.97;;;1.23;100.00
29379;BME280;16362;47.202;15.258;2023-03-14T02:53:04;94767.41;;;1.17;100.00
29379;BME280;16362;47.202;15.258;2023-03-14T02:55:30;94773.19;;;1.21;100.00
29379;BME280;16362;47.202;15.258;2023-03-14T02:57:57;94787.06;;;1.31;100.00
29379;BME280;16362;47.202;15.258;2023-03-14T03:00:23;94788.91;;;1.39;100.00
29379;BME280;16362;47.202;15.258;2023-03-14T03:02:50;94777.31;;;1.49;100.00
29379;BME280;16362;47.202;15.258;2023-03-14T03:05:17;94763.81;;;1.44;100.00
29379;BME280;16362;47.202;15.258;2023-03-14T03:07:43;94753.78;;;1.40;100.00
29379;BME280;16362;47.202;15.258;2023-03-14T03:10:10;94778.66;;;1.27;100.00
29379;BME280;16362;47.202;15.258;2023-03-14T03:12:36;94778.66;;;1.27;100.00
29379;BME280;16362;47.202;15.258;2023-03-14T03:15:03;94772.66;;;1.43;100.00
29379;BME280;16362;47.202;15.258;2023-03-14T03:17:30;94776.75;;;1.64;100.00
29379;BME280;16362;47.202;15.258;2023-03-14T03:19:56;94771.63;;;1.62;100.00
29379;BME280;16362;47.202;15.258;2023-03-14T03:22:23;94757.31;;;1.57;100.00
29379;BME280;16362;47.202;15.258;2023-03-14T03:24:49;94779.47;;;1.54;100.00
29379;BME280;16362;47.202;15.258;2023-03-14T03:27:16;94770.78;;;1.54;100.00
29379;BME280;16362;47.202;15.258;2023-03-14T03:29:42;94765.03;;;1.58;100.00
29379;BME280;16362;47.202;15.258;2023-03-14T03:32:09;94758.97;;;1.58;100.00
29379;BME280;16362;47.202;15.258;2023-03-14T03:34:35;94747.78;;;1.56;100.00
29379;BME280;16362;47.202;15.258;2023-03-14T03:37:02;94753.34;;;1.52;100.00
29379;BME280;16362;47.202;15.258;2023-03-14T03:39:29;94767.97;;;1.55;100.00
29379;BME280;16362;47.202;15.258;2023-03-14T03:41:55;94770.78;;;1.54;100.00
29379;BME280;16362;47.202;15.258;2023-03-14T03:44:22;94768.47;;;1.50;100.00
29379;BME280;16362;47.202;15.258;2023-03-14T03:46:48;94771.84;;;1.43;100.00
29379;BME280;16362;47.202;15.258;2023-03-14T03:49:15;94775.66;;;1.48;100.00
29379;BME280;16362;47.202;15.258;2023-03-14T03:51:41;94759.41;;;1.45;100.00
29379;BME280;16362;47.202;15.258;2023-03-14T03:54:08;94771.03;;;1.42;100.00
29379;BME280;16362;47.202;15.258;2023-03-14T03:56:34;94772.22;;;1.48;100.00
29379;BME280;16362;47.202;15.258;2023-03-14T03:59:01;94770.44;;;1.57;100.00
29379;BME280;16362;47.202;15.258;2023-03-14T04:01:27;94789.69;;;1.57;100.00
29379;BME280;16362;47.202;15.258;2023-03-14T04:03:54;94791.53;;;1.65;100.00
29379;BME280;16362;47.202;15.258;2023-03-14T04:06:21;94780.28;;;1.46;100.00
29379;BME280;16362;47.202;15.258;2023-03-14T04:08:48;94796.50;;;1.42;100.00
29379;BME280;16362;47.202;15.258;2023-03-14T04:11:14;94798.75;;;1.37;100.00
29379;BME280;16362;47.202;15.258;2023-03-14T04:13:43;94817.63;;;1.32;100.00
29379;BME280;16362;47.202;15.258;2023-03-14T04:16:12;94810.69;;;1.31;100.00
29379;BME280;16362;47.202;15.258;2023-03-14T04:18:41;94796.13;;;1.37;100.00
29379;BME280;16362;47.202;15.258;2023-03-14T04:21:07;94795.66;;;1.41;100.00
29379;BME280;16362;47.202;15.258;2023-03-14T04:23:45;94795.00;;;1.39;100.00
29379;BME280;16362;47.202;15.258;2023-03-14T04:26:12;94805.50;;;1.39;100.00
29379;BME280;16362;47.202;15.258;2023-03-14T04:28:38;94797.63;;;1.39;100.00
29379;BME280;16362;47.202;15.258;2023-03-14T04:31:09;94791.44;;;1.48;100.00
29379;BME280;16362;47.202;15.258;2023-03-14T04:33:36;94770.38;;;1.66;100.00
29379;BME280;16362;47.202;15.258;2023-03-14T04:36:15;94775.47;;;1.68;100.00
29379;BME280;16362;47.202;15.258;2023-03-14T04:38:42;94776.75;;;1.64;100.00
29379;BME280;16362;47.202;15.258;2023-03-14T04:41:08;94764.09;;;1.67;100.00
29379;BME280;16362;47.202;15.258;2023-03-14T04:43:35;94762.53;;;1.83;100.00
29379;BME280;16362;47.202;15.258;2023-03-14T04:46:01;94762.06;;;1.88;100.00
29379;BME280;16362;47.202;15.258;2023-03-14T04:48:46;94759.44;;;1.88;100.00
29379;BME280;16362;47.202;15.258;2023-03-14T04:51:13;94768.28;;;1.87;100.00
29379;BME280;16362;47.202;15.258;2023-03-14T04:53:39;94753.56;;;1.94;100.00
29379;BME280;16362;47.202;15.258;2023-03-14T04:56:06;94764.47;;;2.07;100.00
29379;BME280;16362;47.202;15.258;2023-03-14T04:58:45;94767.75;;;2.09;100.00
29379;BME280;16362;47.202;15.258;2023-03-14T05:01:12;94786.31;;;2.08;100.00
29379;BME280;16362;47.202;15.258;2023-03-14T05:03:38;94783.69;;;2.08;100.00
29379;BME280;16362;47.202;15.258;2023-03-14T05:06:05;94775.19;;;2.22;100.00
29379;BME280;16362;47.202;15.258;2023-03-14T05:08:32;94759.72;;;2.27;100.00
29379;BME280;16362;47.202;15.258;2023-03-14T05:10:59;94738.53;;;2.29;100.00
29379;BME280;16362;47.202;15.258;2023-03-14T05:13:25;94750.56;;;2.31;100.00
29379;BME280;16362;47.202;15.258;2023-03-14T05:15:52;94749.38;;;2.34;100.00
29379;BME280;16362;47.202;15.258;2023-03-14T05:18:19;94755.00;;;2.39;100.00
29379;BME280;16362;47.202;15.258;2023-03-14T05:20:46;94760.28;;;2.47;100.00
29379;BME280;16362;47.202;15.258;2023-03-14T05:23:12;94745.81;;;2.51;100.00
29379;BME280;16362;47.202;15.258;2023-03-14T05:25:39;94748.31;;;2.53;100.00
29379;BME280;16362;47.202;15.258;2023-03-14T05:30:06;94755.69;;;2.49;100.00
29379;BME280;16362;47.202;15.258;2023-03-14T05:32:33;94737.09;;;2.51;100.00
29379;BME280;16362;47.202;15.258;2023-03-14T05:34:59;94743.22;;;2.76;100.00
29379;BME280;16362;47.202;15.258;2023-03-14T05:37:26;94739.56;;;2.85;100.00
29379;BME280;16362;47.202;15.258;2023-03-14T05:39:52;94739.28;;;2.80;100.00
29379;BME280;16362;47.202;15.258;2023-03-14T05:42:19;94745.53;;;2.79;100.00
29379;BME280;16362;47.202;15.258;2023-03-14T05:44:46;94743.22;;;2.76;100.00
29379;BME280;16362;47.202;15.258;2023-03-14T05:47:12;94738.94;;;2.75;100.00
29379;BME280;16362;47.202;15.258;2023-03-14T05:49:39;94750.28;;;2.67;100.00
29379;BME280;16362;47.202;15.258;2023-03-14T05:52:06;94738.94;;;2.67;100.00
29379;BME280;16362;47.202;15.258;2023-03-14T05:54:32;94736.94;;;2.69;100.00
29379;BME280;16362;47.202;15.258;2023-03-14T05:56:59;94726.41;;;2.69;100.00
29379;BME280;16362;47.202;15.258;2023-03-14T06:00:11;94733.31;;;2.70;100.00
29379;BME280;16362;47.202;15.258;2023-03-14T06:02:37;94733.66;;;2.75;100.00
29379;BME280;16362;47.202;15.258;2023-03-14T06:05:04;94727.59;;;2.83;100.00
29379;BME280;16362;47.202;15.258;2023-03-14T06:07:31;94726.09;;;2.97;100.00
29379;BME280;16362;47.202;15.258;2023-03-14T06:10:10;94727.41;;;3.09;100.00
29379;BME280;16362;47.202;15.258;2023-03-14T06:12:36;94711.75;;;3.08;100.00
29379;BME280;16362;47.202;15.258;2023-03-14T06:15:03;94710.78;;;3.09;100.00
29379;BME280;16362;47.202;15.258;2023-03-14T06:17:30;94702.53;;;3.03;100.00
29379;BME280;16362;47.202;15.258;2023-03-14T06:19:56;94712.41;;;3.10;100.00
29379;BME280;16362;47.202;15.258;2023-03-14T06:22:23;94731.00;;;3.08;100.00
29379;BME280;16362;47.202;15.258;2023-03-14T06:24:49;94725.91;;;3.15;100.00
29379;BME280;16362;47.202;15.258;2023-03-14T06:27:16;94711.91;;;3.23;100.00
29379;BME280;16362;47.202;15.258;2023-03-14T06:29:42;94713.53;;;3.40;100.00
29379;BME280;16362;47.202;15.258;2023-03-14T06:32:21;94719.25;;;3.60;100.00
29379;BME280;16362;47.202;15.258;2023-03-14T06:34:48;94708.69;;;3.60;100.00
29379;BME280;16362;47.202;15.258;2023-03-14T06:37:14;94710.66;;;3.58;100.00
29379;BME280;16362;47.202;15.258;2023-03-14T06:39:41;94713.47;;;3.57;100.00
29379;BME280;16362;47.202;15.258;2023-03-14T06:42:07;94704.56;;;3.58;100.00
29379;BME280;16362;47.202;15.258;2023-03-14T06:44:34;94722.19;;;3.57;100.00
29379;BME280;16362;47.202;15.258;2023-03-14T06:47:01;94729.78;;;3.60;100.00
29379;BME280;16362;47.202;15.258;2023-03-14T06:49:27;94735.22;;;3.67;100.00
29379;BME280;16362;47.202;15.258;2023-03-14T06:51:54;94722.31;;;3.72;100.00
29379;BME280;16362;47.202;15.258;2023-03-14T06:54:20;94731.41;;;3.78;100.00
29379;BME280;16362;47.202;15.258;2023-03-14T06:56:47;94709.94;;;3.81;100.00
29379;BME280;16362;47.202;15.258;2023-03-14T06:59:14;94696.88;;;3.87;100.00
29379;BME280;16362;47.202;15.258;2023-03-14T07:01:40;94676.25;;;4.22;100.00
29379;BME280;16362;47.202;15.258;2023-03-14T07:04:08;94678.72;;;4.70;100.00
29379;BME280;16362;47.202;15.258;2023-03-14T07:06:34;94692.56;;;4.96;100.00
29379;BME280;16362;47.202;15.258;2023-03-14T07:09:01;94693.78;;;5.08;100.00
29379;BME280;16362;47.202;15.258;2023-03-14T07:11:29;94689.34;;;5.23;100.00
29379;BME280;16362;47.202;15.258;2023-03-14T07:13:55;94681.34;;;5.32;100.00
29379;BME280;16362;47.202;15.258;2023-03-14T07:16:22;94673.13;;;5.56;100.00
29379;BME280;16362;47.202;15.258;2023-03-14T07:18:48;94679.34;;;5.64;100.00
29379;BME280;16362;47.202;15.258;2023-03-14T07:21:15;94688.28;;;5.63;100.00
29379;BME280;16362;47.202;15.258;2023-03-14T07:23:42;94692.03;;;5.68;100.00
29379;BME280;16362;47.202;15.258;2023-03-14T07:26:08;94688.03;;;5.72;100.00
29379;BME280;16362;47.202;15.258;2023-03-14T07:28:35;94688.19;;;5.86;100.00
29379;BME280;16362;47.202;15.258;2023-03-14T07:31:01;94686.38;;;5.86;100.00
29379;BME280;16362;47.202;15.258;2023-03-14T07:33:28;94676.25;;;5.90;100.00
29379;BME280;16362;47.202;15.258;2023-03-14T07:35:54;94676.66;;;5.94;100.00
29379;BME280;16362;47.202;15.258;2023-03-14T07:38:21;94665.38;;;6.00;100.00
29379;BME280;16362;47.202;15.258;2023-03-14T07:40:48;94670.66;;;6.15;100.00
29379;BME280;16362;47.202;15.258;2023-03-14T07:43:15;94660.63;;;6.32;100.00
29379;BME280;16362;47.202;15.258;2023-03-14T07:45:44;94661.75;;;6.59;100.00
29379;BME280;16362;47.202;15.258;2023-03-14T07:48:11;94654.59;;;6.81;100.00
29379;BME280;16362;47.202;15.258;2023-03-14T07:50:38;94645.13;;;6.94;100.00
29379;BME280;16362;47.202;15.258;2023-03-14T07:53:04;94641.38;;;7.10;100.00
29379;BME280;16362;47.202;15.258;2023-03-14T07:55:31;94623.03;;;7.43;100.00
29379;BME280;16362;47.202;15.258;2023-03-14T07:57:57;94623.78;;;7.72;100.00
29379;BME280;16362;47.202;15.258;2023-03-14T08:00:24;94617.47;;;7.73;100.00
29379;BME280;16362;47.202;15.258;2023-03-14T08:02:50;94618.19;;;8.02;100.00
29379;BME280;16362;47.202;15.258;2023-03-14T08:05:17;94621.75;;;8.36;100.00
29379;BME280;16362;47.202;15.258;2023-03-14T08:07:43;94622.03;;;8.48;100.00
29379;BME280;16362;47.202;15.258;2023-03-14T08:10:10;94610.00;;;8.65;100.00
29379;BME280;16362;47.202;15.258;2023-03-14T08:12:36;94596.88;;;9.10;100.00
29379;BME280;16362;47.202;15.258;2023-03-14T08:15:03;94590.69;;;9.50;100.00
29379;BME280;16362;47.202;15.258;2023-03-14T08:17:30;94589.81;;;9.70;100.00
29379;BME280;16362;47.202;15.258;2023-03-14T08:19:56;94560.84;;;9.93;100.00
29379;BME280;16362;47.202;15.258;2023-03-14T08:22:23;94559.78;;;10.33;100.00
29379;BME280;16362;47.202;15.258;2023-03-14T08:24:49;94569.44;;;10.66;100.00
29379;BME280;16362;47.202;15.258;2023-03-14T08:27:16;94568.16;;;11.01;100.00
29379;BME280;16362;47.202;15.258;2023-03-14T08:29:43;94572.97;;;11.36;100.00
29379;BME280;16362;47.202;15.258;2023-03-14T08:32:09;94565.34;;;11.58;100.00
29379;BME280;16362;47.202;15.258;2023-03-14T08:34:36;94576.63;;;11.78;99.75
29379;BME280;16362;47.202;15.258;2023-03-14T08:37:04;94571.50;;;11.77;99.54
29379;BME280;16362;47.202;15.258;2023-03-14T08:39:41;94559.47;;;11.86;100.00
29379;BME280;16362;47.202;15.258;2023-03-14T08:42:08;94567.38;;;12.30;98.84
29379;BME280;16362;47.202;15.258;2023-03-14T08:44:34;94569.38;;;12.35;98.74
29379;BME280;16362;47.202;15.258;2023-03-14T08:47:01;94554.50;;;12.39;97.15
29379;BME280;16362;47.202;15.258;2023-03-14T08:49:27;94562.63;;;12.32;96.95
29379;BME280;16362;47.202;15.258;2023-03-14T08:51:54;94570.69;;;12.44;95.62
29379;BME280;16362;47.202;15.258;2023-03-14T08:54:21;94584.06;;;12.44;95.91
29379;BME280;16362;47.202;15.258;2023-03-14T08:56:47;94593.44;;;12.04;98.62
29379;BME280;16362;47.202;15.258;2023-03-14T08:59:14;94589.47;;;12.07;97.85
29379;BME280;16362;47.202;15.258;2023-03-14T09:01:40;94596.81;;;11.74;99.81
29379;BME280;16362;47.202;15.258;2023-03-14T09:04:07;94589.31;;;11.83;99.40
29379;BME280;16362;47.202;15.258;2023-03-14T09:06:33;94581.22;;;11.71;100.00
29379;BME280;16362;47.202;15.258;2023-03-14T09:09:00;94582.41;;;11.75;100.00
29379;BME280;16362;47.202;15.258;2023-03-14T09:11:27;94585.09;;;11.57;100.00
29379;BME280;16362;47.202;15.258;2023-03-14T09:13:54;94570.31;;;11.73;100.00
29379;BME280;16362;47.202;15.258;2023-03-14T09:16:20;94563.72;;;11.57;100.00
29379;BME280;16362;47.202;15.258;2023-03-14T09:18:47;94573.81;;;11.73;100.00
29379;BME280;16362;47.202;15.258;2023-03-14T09:21:13;94577.53;;;11.72;100.00
29379;BME280;16362;47.202;15.258;2023-03-14T09:23:40;94583.09;;;11.89;100.00
29379;BME280;16362;47.202;15.258;2023-03-14T09:26:07;94578.06;;;12.00;99.68
29379;BME280;16362;47.202;15.258;2023-03-14T09:28:33;94585.59;;;12.03;99.57
29379;BME280;16362;47.202;15.258;2023-03-14T09:31:07;94581.22;;;11.90;100.00
29379;BME280;16362;47.202;15.258;2023-03-14T09:33:34;94578.06;;;12.00;99.98
29379;BME280;16362;47.202;15.258;2023-03-14T09:36:01;94589.19;;;11.96;100.00
29379;BME280;16362;47.202;15.258;2023-03-14T09:38:28;94590.50;;;11.87;99.80
29379;BME280;16362;47.202;15.258;2023-03-14T09:40:55;94590.13;;;11.84;100.00
29379;BME280;16362;47.202;15.258;2023-03-14T09:43:24;94584.56;;;11.85;100.00
29379;BME280;16362;47.202;15.258;2023-03-14T09:45:51;94587.84;;;11.87;100.00
29379;BME280;16362;47.202;15.258;2023-03-14T09:48:22;94580.50;;;11.83;100.00
29379;BME280;16362;47.202;15.258;2023-03-14T09:50:51;94590.00;;;11.78;100.00
29379;BME280;16362;47.202;15.258;2023-03-14T09:53:20;94580.91;;;11.79;100.00
29379;BME280;16362;47.202;15.258;2023-03-14T09:55:48;94570.00;;;11.81;100.00
29379;BME280;16362;47.202;15.258;2023-03-14T09:58:18;94561.25;;;11.92;100.00
29379;BME280;16362;47.202;15.258;2023-03-14T10:00:45;94567.19;;;12.13;100.00
29379;BME280;16362;47.202;15.258;2023-03-14T10:05:40;94548.59;;;12.49;97.88
29379;BME280;16362;47.202;15.258;2023-03-14T10:08:11;94551.56;;;12.83;97.09
29379;BME280;16362;47.202;15.258;2023-03-14T10:10:38;94546.94;;;12.90;96.67
29379;BME280;16362;47.202;15.258;2023-03-14T10:13:15;94542.31;;;13.09;95.78
29379;BME280;16362;47.202;15.258;2023-03-14T10:15:43;94532.06;;;13.41;93.21
29379;BME280;16362;47.202;15.258;2023-03-14T10:18:13;94510.28;;;13.38;93.92
29379;BME280;16362;47.202;15.258;2023-03-14T10:20:41;94498.13;;;13.71;91.63
29379;BME280;16362;47.202;15.258;2023-03-14T10:25:39;94479.63;;;14.61;83.48
29379;BME280;16362;47.202;15.258;2023-03-14T10:28:26;94477.72;;;14.90;82.07
29379;BME280;16362;47.202;15.258;2023-03-14T10:30:53;94478.44;;;15.03;77.54
29379;BME280;16362;47.202;15.258;2023-03-14T10:33:21;94465.84;;;15.25;75.97
29379;BME280;16362;47.202;15.258;2023-03-14T10:35:57;94455.72;;;15.32;71.09
29379;BME280;16362;47.202;15.258;2023-03-14T10:38:28;94462.59;;;15.23;61.99
29379;BME280;16362;47.202;15.258;2023-03-14T10:40:56;94445.84;;;15.16;57.90
29379;BME280;16362;47.202;15.258;2023-03-14T10:43:31;94443.03;;;14.89;55.61
29379;BME280;16362;47.202;15.258;2023-03-14T10:46:00;94460.28;;;14.76;54.86
29379;BME280;16362;47.202;15.258;2023-03-14T10:48:35;94467.03;;;14.61;55.80
29379;BME280;16362;47.202;15.258;2023-03-14T10:51:45;94461.50;;;14.51;55.43
29379;BME280;16362;47.202;15.258;2023-03-14T10:53:57;94497.03;;;14.41;55.29
29379;BME280;16362;47.202;15.258;2023-03-14T10:56:24;94482.75;;;14.24;56.56
29379;BME280;16362;47.202;15.258;2023-03-14T10:58:56;94494.28;;;14.07;56.71
29379;BME280;16362;47.202;15.258;2023-03-14T11:14:51;94526.34;;;13.61;58.71
29379;BME280;16362;47.202;15.258;2023-03-14T11:17:58;94512.47;;;13.53;59.10
29379;BME280;16362;47.202;15.258;2023-03-14T11:22:41;94513.75;;;13.50;59.95
29379;BME280;16362;47.202;15.258;2023-03-14T11:33:04;94503.03;;;13.62;60.45
29379;BME280;16362;47.202;15.258;2023-03-14T11:35:37;94506.44;;;13.57;59.06
29379;BME280;16362;47.202;15.258;2023-03-14T11:38:10;94512.72;;;13.51;60.55
29379;BME280;16362;47.202;15.258;2023-03-14T11:40:37;94518.31;;;13.61;59.12
29379;BME280;16362;47.202;15.258;2023-03-14T11:45:41;94518.31;;;13.50;58.22
29379;BME280;16362;47.202;15.258;2023-03-14T11:48:16;94516.69;;;13.48;59.14
29379;BME280;16362;47.202;15.258;2023-03-14T11:50:52;94535.06;;;13.57;57.26
29379;BME280;16362;47.202;15.258;2023-03-14T11:53:21;94531.72;;;13.50;56.78
29379;BME280;16362;47.202;15.258;2023-03-14T11:55:48;94532.88;;;13.42;56.70
29379;BME280;16362;47.202;15.258;2023-03-14T11:58:19;94513.19;;;13.36;56.50
29379;BME280;16362;47.202;15.258;2023-03-14T12:00:47;94532.16;;;13.23;57.90
29379;BME280;16362;47.202;15.258;2023-03-14T12:11:23;94521.22;;;13.24;57.37
29379;BME280;16362;47.202;15.258;2023-03-14T12:13:51;94520.03;;;13.20;57.80
29379;BME280;16362;47.202;15.258;2023-03-14T12:18:47;94514.13;;;13.18;57.26
29379;BME280;16362;47.202;15.258;2023-03-14T12:21:13;94527.97;;;13.15;58.19
29379;BME280;16362;47.202;15.258;2023-03-14T12:28:42;94536.47;;;13.12;58.21
29379;BME280;16362;47.202;15.258;2023-03-14T12:34:37;94533.56;;;13.02;58.40
29379;BME280;16362;47.202;15.258;2023-03-14T12:39:20;94519.03;;;12.97;58.24
29379;BME280;16362;47.202;15.258;2023-03-14T12:41:52;94511.78;;;12.98;57.73
29379;BME280;16362;47.202;15.258;2023-03-14T12:46:58;94511.31;;;13.01;58.58
29379;BME280;16362;47.202;15.258;2023-03-14T12:49:31;94515.16;;;13.05;57.95
29379;BME280;16362;47.202;15.258;2023-03-14T12:52:01;94503.16;;;13.08;58.73
29379;BME280;16362;47.202;15.258;2023-03-14T12:57:09;94501.09;;;12.98;58.61
29379;BME280;16362;47.202;15.258;2023-03-14T13:00:16;94497.69;;;13.03;58.86
29379;BME280;16362;47.202;15.258;2023-03-14T13:02:37;94495.34;;;13.30;57.17
29379;BME280;16362;47.202;15.258;2023-03-14T13:12:43;94496.88;;;13.61;56.16
29379;BME280;16362;47.202;15.258;2023-03-14T13:15:22;94491.63;;;13.55;55.61
29379;BME280;16362;47.202;15.258;2023-03-14T13:17:50;94495.22;;;13.60;59.14
29379;BME280;16362;47.202;15.258;2023-03-14T13:20:27;94494.38;;;13.72;56.38
29379;BME280;16362;47.202;15.258;2023-03-14T13:22:54;94499.16;;;13.70;57.05
29379;BME280;16362;47.202;15.258;2023-03-14T13:25:21;94502.34;;;13.67;55.99
29379;BME280;16362;47.202;15.258;2023-03-14T13:27:49;94497.41;;;13.63;56.15
29379;BME280;16362;47.202;15.258;2023-03-14T13:30:28;94499.78;;;13.48;56.26
29379;BME280;16362;47.202;15.258;2023-03-14T13:33:03;94502.75;;;13.75;55.02
29379;BME280;16362;47.202;15.258;2023-03-14T13:35:37;94506.19;;;13.47;55.87
29379;BME280;16362;47.202;15.258;2023-03-14T13:38:04;94503.72;;;13.34;57.76
29379;BME280;16362;47.202;15.258;2023-03-14T13:40:37;94504.44;;;13.29;57.85
29379;BME280;16362;47.202;15.258;2023-03-14T13:43:05;94509.56;;;13.30;56.46
29379;BME280;16362;47.202;15.258;2023-03-14T13:45:41;94517.38;;;13.20;57.55
29379;BME280;16362;47.202;15.258;2023-03-14T13:48:09;94512.97;;;13.14;56.20
29379;BME280;16362;47.202;15.258;2023-03-14T13:50:36;94510.41;;;13.19;56.76
29379;BME280;16362;47.202;15.258;2023-03-14T13:53:02;94519.94;;;13.15;57.17
29379;BME280;16362;47.202;15.258;2023-03-14T13:55:29;94522.97;;;13.07;58.08
29379;BME280;16362;47.202;15.258;2023-03-14T13:57:55;94519.47;;;12.94;58.01
29379;BME280;16362;47.202;15.258;2023-03-14T14:00:26;94516.34;;;12.97;58.19
29379;BME280;16362;47.202;15.258;2023-03-14T14:02:57;94517.81;;;12.93;59.51
29379;BME280;16362;47.202;15.258;2023-03-14T14:05:28;94514.59;;;12.91;58.56
29379;BME280;16362;47.202;15.258;2023-03-14T14:07:55;94525.63;;;12.83;58.78
29379;BME280;16362;47.202;15.258;2023-03-14T14:10:22;94522.03;;;12.77;59.07
29379;BME280;16362;47.202;15.258;2023-03-14T14:12:50;94523.88;;;12.77;59.62
29379;BME280;16362;47.202;15.258;2023-03-14T14:15:23;94529.56;;;12.69;60.25
29379;BME280;16362;47.202;15.258;2023-03-14T14:17:56;94536.66;;;12.63;60.22
29379;BME280;16362;47.202;15.258;2023-03-14T14:20:26;94534.91;;;12.69;60.32
29379;BME280;16362;47.202;15.258;2023-03-14T14:22:58;94535.38;;;12.66;59.47